This is the latest recevied weather packets stored in our database for station/object W4MLN-3. If no packets are shown the sender has not sent any weather packets the latest 10 day(s).
| Time | Temp. | Humidity | Pressure | Rain* | Wind** | Luminosity | Snow |
|---|---|---|---|---|---|---|---|
| 1787595903 | 25° C | 50% | 1019.1 hPa | 0 mm | - | - | - |
| 1787595603 | 25° C | 49% | 1019.1 hPa | 0 mm | - | - | - |
| 1787595345 | 25° C | 49% | 1019 hPa | 0 mm | - | - | - |
| 1787595003 | 25° C | 45% | 1018.9 hPa | 0 mm | - | - | - |
| 1787594724 | 25° C | 48% | 1018.9 hPa | 0 mm | - | - | - |
| 1787594403 | 25° C | 50% | 1018.9 hPa | 0 mm | - | - | - |
| 1787594145 | 25.56° C | 50% | 1018.8 hPa | 0 mm | - | - | - |
| 1787593803 | 25° C | 53% | 1018.7 hPa | 0 mm | - | - | - |
| 1787593503 | 25° C | 52% | 1018.7 hPa | 0 mm | - | - | - |
| 1787593203 | 25° C | 52% | 1018.8 hPa | 0 mm | - | - | - |
| 1787592903 | 25° C | 51% | 1018.8 hPa | 0 mm | - | - | - |
| 1787592606 | 25.56° C | 50% | 1018.9 hPa | 0 mm | - | - | - |
| 1787592303 | 25.56° C | 50% | 1018.9 hPa | 0 mm | - | - | - |
| 1787592003 | 25° C | 51% | 1018.9 hPa | 0 mm | - | - | - |
| 1787591724 | 25° C | 49% | 1018.8 hPa | 0 mm | - | - | - |
| 1787591403 | 24.44° C | 51% | 1018.8 hPa | 0 mm | - | - | - |
| 1787591103 | 24.44° C | 51% | 1018.8 hPa | 0 mm | - | - | - |
| 1787590803 | 24.44° C | 50% | 1018.9 hPa | 0 mm | - | - | - |
| 1787590503 | 24.44° C | 51% | 1019 hPa | 0 mm | - | - | - |
| 1787590203 | 24.44° C | 51% | 1019.1 hPa | 0 mm | - | - | - |
| 1787589903 | 23.89° C | 54% | 1019.1 hPa | 0 mm | - | - | - |
| 1787589604 | 23.89° C | 54% | 1019.2 hPa | 0 mm | - | - | - |
| 1787589303 | 23.89° C | 52% | 1019.2 hPa | 0 mm | - | - | - |
| 1787589003 | 23.33° C | 54% | 1019.2 hPa | 0 mm | - | - | - |
| 1787588703 | 22.78° C | 59% | 1019.2 hPa | 0 mm | - | - | - |
* Rain latest hour (hover to see other rain measurements)
** Current wind speed in m/s (hover to see current wind gust speed)